createdAt,value
2022-10-19T00:00:00.289Z,893.8
2022-10-19T00:01:00.439Z,893.7
2022-10-19T00:02:00.424Z,893.7
2022-10-19T00:03:00.342Z,893.7
2022-10-19T00:04:02.424Z,893.8
2022-10-19T00:05:00.412Z,893.8
2022-10-19T00:06:00.327Z,893.8
2022-10-19T00:07:00.446Z,893.8
2022-10-19T00:08:00.322Z,893.8
2022-10-19T00:09:00.301Z,893.8
2022-10-19T00:10:00.334Z,893.7
2022-10-19T00:11:00.326Z,893.7
2022-10-19T00:12:00.335Z,893.7
2022-10-19T00:13:00.529Z,893.7
2022-10-19T00:14:00.512Z,893.7
2022-10-19T00:15:00.294Z,893.7
2022-10-19T00:16:00.289Z,893.7
2022-10-19T00:17:00.276Z,893.7
2022-10-19T00:18:00.296Z,893.7
2022-10-19T00:19:00.457Z,893.6
2022-10-19T00:20:00.290Z,893.6
2022-10-19T00:21:00.273Z,893.6
2022-10-19T00:22:00.291Z,893.6
2022-10-19T00:23:00.343Z,893.6
2022-10-19T00:24:00.333Z,893.6
2022-10-19T00:25:00.475Z,893.7
2022-10-19T00:26:00.302Z,893.7
2022-10-19T00:27:00.334Z,893.7
2022-10-19T00:28:00.319Z,893.7
2022-10-19T00:29:00.382Z,893.7
2022-10-19T00:30:00.455Z,893.7
2022-10-19T00:31:00.453Z,893.7
2022-10-19T00:32:00.330Z,893.7
2022-10-19T00:33:00.339Z,893.6
2022-10-19T00:34:00.366Z,893.6
2022-10-19T00:35:00.312Z,893.6
2022-10-19T00:36:00.312Z,893.6
2022-10-19T00:37:00.428Z,893.6
2022-10-19T00:38:00.314Z,893.6
2022-10-19T00:39:00.276Z,893.6
2022-10-19T00:40:00.336Z,893.6
2022-10-19T00:41:00.295Z,893.6
2022-10-19T00:42:00.279Z,893.6
2022-10-19T00:43:00.489Z,893.7
2022-10-19T00:44:00.307Z,893.6
2022-10-19T00:45:00.431Z,893.6
2022-10-19T00:46:00.415Z,893.7
2022-10-19T00:47:00.319Z,893.7
2022-10-19T00:48:00.311Z,893.6
2022-10-19T00:49:01.407Z,893.6
2022-10-19T00:50:00.273Z,893.6
2022-10-19T00:51:00.299Z,893.6
2022-10-19T00:52:00.307Z,893.6
2022-10-19T00:53:00.289Z,893.6
2022-10-19T00:54:00.278Z,893.6
2022-10-19T00:55:00.424Z,893.6
2022-10-19T00:56:00.309Z,893.6
2022-10-19T00:57:00.311Z,893.6
2022-10-19T00:58:00.288Z,893.6
2022-10-19T00:59:00.304Z,893.6
2022-10-19T01:00:00.290Z,893.6
2022-10-19T01:01:00.496Z,893.6
2022-10-19T01:02:00.352Z,893.6
2022-10-19T01:03:00.385Z,893.6
2022-10-19T01:04:00.309Z,893.6
2022-10-19T01:05:00.291Z,893.5
2022-10-19T01:06:00.290Z,893.5
2022-10-19T01:07:00.522Z,893.5
2022-10-19T01:08:00.300Z,893.5
2022-10-19T01:09:00.377Z,893.5
2022-10-19T01:10:00.280Z,893.5
2022-10-19T01:11:00.373Z,893.5
2022-10-19T01:12:00.340Z,893.5
2022-10-19T01:13:00.577Z,893.5
2022-10-19T01:14:00.377Z,893.4
2022-10-19T01:15:00.292Z,893.5
2022-10-19T01:16:00.446Z,893.4
2022-10-19T01:17:00.395Z,893.5
2022-10-19T01:18:00.300Z,893.5
2022-10-19T01:19:00.415Z,893.5
2022-10-19T01:20:00.294Z,893.5
2022-10-19T01:21:00.305Z,893.5
2022-10-19T01:22:00.313Z,893.5
2022-10-19T01:23:00.299Z,893.5
2022-10-19T01:24:00.295Z,893.5
2022-10-19T01:25:00.552Z,893.5
2022-10-19T01:26:00.315Z,893.4
2022-10-19T01:27:00.300Z,893.4
2022-10-19T01:28:00.298Z,893.4
2022-10-19T01:29:00.350Z,893.4
2022-10-19T01:30:00.312Z,893.4
2022-10-19T01:31:00.416Z,893.4
2022-10-19T01:32:00.530Z,893.4
2022-10-19T01:33:00.338Z,893.4
2022-10-19T01:34:00.284Z,893.4
2022-10-19T01:35:00.312Z,893.4
2022-10-19T01:36:00.328Z,893.4
2022-10-19T01:37:00.528Z,893.4
2022-10-19T01:38:00.302Z,893.4
2022-10-19T01:39:00.302Z,893.4
2022-10-19T01:40:00.298Z,893.4
2022-10-19T01:41:00.295Z,893.3
2022-10-19T01:42:00.403Z,893.4
2022-10-19T01:43:00.512Z,893.3
2022-10-19T01:44:00.315Z,893.4
2022-10-19T01:45:00.319Z,893.4
2022-10-19T01:46:00.311Z,893.4
2022-10-19T01:47:00.431Z,893.4
2022-10-19T01:48:00.382Z,893.4
2022-10-19T01:49:00.556Z,893.4
2022-10-19T01:50:00.310Z,893.4
2022-10-19T01:51:00.305Z,893.4
2022-10-19T01:52:00.341Z,893.4
2022-10-19T01:53:00.314Z,893.4
2022-10-19T01:54:00.330Z,893.3
2022-10-19T01:55:00.433Z,893.4
2022-10-19T01:56:00.285Z,893.3
2022-10-19T01:57:00.342Z,893.4
2022-10-19T01:58:00.313Z,893.4
2022-10-19T01:59:00.300Z,893.4
2022-10-19T02:00:00.342Z,893.4
2022-10-19T02:01:00.536Z,893.4
2022-10-19T02:02:00.303Z,893.4
2022-10-19T02:03:00.531Z,893.4
2022-10-19T02:04:00.293Z,893.4
2022-10-19T02:05:00.302Z,893.4
2022-10-19T02:06:00.309Z,893.4
2022-10-19T02:07:00.443Z,893.4
2022-10-19T02:08:00.309Z,893.4
2022-10-19T02:09:00.304Z,893.4
2022-10-19T02:10:00.396Z,893.4
2022-10-19T02:11:00.316Z,893.4
2022-10-19T02:12:00.293Z,893.4
2022-10-19T02:13:00.435Z,893.4
2022-10-19T02:14:00.308Z,893.4
2022-10-19T02:15:00.294Z,893.4
2022-10-19T02:16:00.309Z,893.3
2022-10-19T02:17:00.293Z,893.4
2022-10-19T02:18:00.581Z,893.3
2022-10-19T02:19:00.479Z,893.3
2022-10-19T02:20:00.293Z,893.3
2022-10-19T02:21:00.295Z,893.3
2022-10-19T02:22:00.299Z,893.3
2022-10-19T02:23:00.325Z,893.3
2022-10-19T02:24:00.312Z,893.3
2022-10-19T02:25:00.485Z,893.3
2022-10-19T02:26:00.299Z,893.3
2022-10-19T02:27:00.306Z,893.3
2022-10-19T02:28:00.339Z,893.3
2022-10-19T02:29:00.407Z,893.3
2022-10-19T02:30:00.322Z,893.3
2022-10-19T02:31:00.467Z,893.3
2022-10-19T02:32:00.309Z,893.3
2022-10-19T02:33:00.423Z,893.3
2022-10-19T02:34:00.371Z,893.3
2022-10-19T02:35:00.308Z,893.3
2022-10-19T02:36:00.380Z,893.3
2022-10-19T02:37:00.426Z,893.3
2022-10-19T02:38:00.315Z,893.3
2022-10-19T02:39:00.289Z,893.3
2022-10-19T02:40:00.290Z,893.3
2022-10-19T02:41:00.291Z,893.3
2022-10-19T02:42:00.304Z,893.3
2022-10-19T02:43:00.459Z,893.3
2022-10-19T02:44:00.304Z,893.3
2022-10-19T02:45:00.274Z,893.3
2022-10-19T02:46:00.304Z,893.2
2022-10-19T02:47:00.301Z,893.2
2022-10-19T02:48:00.407Z,893.2
2022-10-19T02:49:00.578Z,893.2
2022-10-19T02:50:00.305Z,893.2
2022-10-19T02:51:00.304Z,893.2
2022-10-19T02:52:00.291Z,893.2
2022-10-19T02:53:00.299Z,893.2
2022-10-19T02:54:04.122Z,893.3
2022-10-19T02:55:00.443Z,893.2
2022-10-19T02:56:00.288Z,893.2
2022-10-19T02:57:00.308Z,893.2
2022-10-19T02:58:00.269Z,893.2
2022-10-19T02:59:00.292Z,893.2
2022-10-19T03:00:00.284Z,893.1
2022-10-19T03:01:00.681Z,893.1
2022-10-19T03:02:00.283Z,893.1
2022-10-19T03:03:00.324Z,893.1
2022-10-19T03:04:00.402Z,893.1
2022-10-19T03:05:00.306Z,893.1
2022-10-19T03:06:00.290Z,893.1
2022-10-19T03:07:00.407Z,893.1
2022-10-19T03:08:00.341Z,893.1
2022-10-19T03:09:00.308Z,893.1
2022-10-19T03:10:00.276Z,893.1
2022-10-19T03:11:00.309Z,893.1
2022-10-19T03:12:00.278Z,893.1
2022-10-19T03:13:00.397Z,893.1
2022-10-19T03:14:00.300Z,893.1
2022-10-19T03:15:00.364Z,893.1
2022-10-19T03:16:00.276Z,893.1
2022-10-19T03:17:00.304Z,893.1
2022-10-19T03:18:00.289Z,893.1
2022-10-19T03:19:00.611Z,893.1
2022-10-19T03:20:00.329Z,893.1
2022-10-19T03:21:00.320Z,893.1
2022-10-19T03:22:00.375Z,893.1
2022-10-19T03:23:00.290Z,893.1
2022-10-19T03:24:00.291Z,893.1
2022-10-19T03:25:00.633Z,893.1
2022-10-19T03:26:00.277Z,893.1
2022-10-19T03:27:00.295Z,893.1
2022-10-19T03:28:00.291Z,893.1
2022-10-19T03:29:00.326Z,893.1
2022-10-19T03:30:00.297Z,893.1
2022-10-19T03:31:00.451Z,893.1
2022-10-19T03:32:00.287Z,893.1
2022-10-19T03:33:00.284Z,893.1
2022-10-19T03:34:00.475Z,893.0
2022-10-19T03:35:00.415Z,893.0
2022-10-19T03:36:00.307Z,893.0
2022-10-19T03:37:00.373Z,893.1
2022-10-19T03:38:00.288Z,893.0
2022-10-19T03:39:00.286Z,893.0
2022-10-19T03:40:00.301Z,893.0
2022-10-19T03:41:00.297Z,893.0
2022-10-19T03:42:00.286Z,893.0
2022-10-19T03:43:00.461Z,893.0
2022-10-19T03:45:00.350Z,893.0
2022-10-19T03:46:00.369Z,893.0
2022-10-19T03:47:00.312Z,893.0
2022-10-19T03:48:00.342Z,893.0
2022-10-19T03:49:00.419Z,893.0
2022-10-19T03:50:00.448Z,893.0
2022-10-19T03:51:00.468Z,893.0
2022-10-19T03:52:00.304Z,893.0
2022-10-19T03:53:00.365Z,893.0
2022-10-19T03:54:00.318Z,893.1
2022-10-19T03:55:00.553Z,893.1
2022-10-19T03:56:00.293Z,893.1
2022-10-19T03:57:00.297Z,893.1
2022-10-19T03:58:00.283Z,893.1
2022-10-19T03:59:00.288Z,893.1
2022-10-19T04:00:00.267Z,893.1
2022-10-19T04:01:00.508Z,893.1
2022-10-19T04:02:00.273Z,893.1
2022-10-19T04:03:00.273Z,893.1
2022-10-19T04:04:00.269Z,893.1
2022-10-19T04:05:00.287Z,893.1
2022-10-19T04:06:00.504Z,893.1
2022-10-19T04:07:00.490Z,893.1
2022-10-19T04:08:00.275Z,893.1
2022-10-19T04:09:00.287Z,893.1
2022-10-19T04:10:00.277Z,893.1
2022-10-19T04:11:00.274Z,893.1
2022-10-19T04:12:00.286Z,893.1
2022-10-19T04:13:00.482Z,893.1
2022-10-19T04:14:00.371Z,893.1
2022-10-19T04:15:00.284Z,893.1
2022-10-19T04:16:00.284Z,893.1
2022-10-19T04:17:00.302Z,893.1
2022-10-19T04:18:00.305Z,893.1
2022-10-19T04:19:00.669Z,893.1
2022-10-19T04:20:00.315Z,893.1
2022-10-19T04:21:00.439Z,893.1
2022-10-19T04:22:00.330Z,893.1
2022-10-19T04:23:00.359Z,893.0
2022-10-19T04:24:00.289Z,893.1
2022-10-19T04:25:00.482Z,893.1
2022-10-19T04:26:00.366Z,893.1
2022-10-19T04:27:00.314Z,893.1
2022-10-19T04:28:00.339Z,893.1
2022-10-19T04:29:00.400Z,893.0
2022-10-19T04:30:00.301Z,893.1
2022-10-19T04:31:00.423Z,893.1
2022-10-19T04:32:00.352Z,893.1
2022-10-19T04:33:00.310Z,893.1
2022-10-19T04:34:00.299Z,893.1
2022-10-19T04:35:00.311Z,893.1
2022-10-19T04:36:00.407Z,893.1
2022-10-19T04:37:00.536Z,893.1
2022-10-19T04:38:00.271Z,893.1
2022-10-19T04:39:00.301Z,893.2
2022-10-19T04:40:00.272Z,893.2
2022-10-19T04:41:00.289Z,893.2
2022-10-19T04:42:00.287Z,893.2
2022-10-19T04:43:00.411Z,893.2
2022-10-19T04:44:00.320Z,893.2
2022-10-19T04:45:00.289Z,893.1
2022-10-19T04:46:00.283Z,893.2
2022-10-19T04:47:00.303Z,893.2
2022-10-19T04:48:00.277Z,893.2
2022-10-19T04:49:00.434Z,893.2
2022-10-19T04:50:00.302Z,893.2
2022-10-19T04:51:00.462Z,893.2
2022-10-19T04:52:00.268Z,893.2
2022-10-19T04:53:00.281Z,893.2
2022-10-19T04:54:00.356Z,893.2
2022-10-19T04:55:00.452Z,893.2
2022-10-19T04:56:00.293Z,893.2
2022-10-19T04:57:00.291Z,893.2
2022-10-19T04:58:00.283Z,893.2
2022-10-19T04:59:00.293Z,893.2
2022-10-19T05:00:00.309Z,893.2
2022-10-19T05:01:00.560Z,893.3
2022-10-19T05:02:00.294Z,893.3
2022-10-19T05:03:00.290Z,893.3
2022-10-19T05:04:00.404Z,893.3
2022-10-19T05:05:00.294Z,893.3
2022-10-19T05:06:00.409Z,893.3
2022-10-19T05:07:00.428Z,893.3
2022-10-19T05:08:00.351Z,893.3
2022-10-19T05:09:00.329Z,893.3
2022-10-19T05:10:00.358Z,893.3
2022-10-19T05:11:00.295Z,893.3
2022-10-19T05:12:00.287Z,893.3
2022-10-19T05:13:00.525Z,893.2
2022-10-19T05:14:00.325Z,893.3
2022-10-19T05:15:00.346Z,893.2
2022-10-19T05:16:00.302Z,893.2
2022-10-19T05:17:00.306Z,893.2
2022-10-19T05:18:00.316Z,893.3
2022-10-19T05:19:00.466Z,893.3
2022-10-19T05:20:00.301Z,893.2
2022-10-19T05:21:00.442Z,893.3
2022-10-19T05:22:00.285Z,893.3
2022-10-19T05:23:04.702Z,893.3
2022-10-19T05:24:00.277Z,893.2
2022-10-19T05:25:00.423Z,893.2
2022-10-19T05:26:00.302Z,893.2
2022-10-19T05:27:00.289Z,893.2
2022-10-19T05:28:00.277Z,893.2
2022-10-19T05:29:00.330Z,893.2
2022-10-19T05:30:00.288Z,893.2
2022-10-19T05:31:00.435Z,893.2
2022-10-19T05:32:00.288Z,893.2
2022-10-19T05:33:00.298Z,893.1
2022-10-19T05:34:00.390Z,893.1
2022-10-19T05:35:00.304Z,893.1
2022-10-19T05:36:00.447Z,893.1
2022-10-19T05:37:00.446Z,893.1
2022-10-19T05:38:00.303Z,893.1
2022-10-19T05:39:00.294Z,893.1
2022-10-19T05:40:00.316Z,893.1
2022-10-19T05:41:00.308Z,893.1
2022-10-19T05:42:00.293Z,893.1
2022-10-19T05:43:00.453Z,893.0
2022-10-19T05:44:00.286Z,893.0
2022-10-19T05:45:00.302Z,893.0
2022-10-19T05:46:00.301Z,893.0
2022-10-19T05:47:00.319Z,893.0
2022-10-19T05:48:00.284Z,893.0
2022-10-19T05:49:00.403Z,893.0
2022-10-19T05:50:00.294Z,893.0
2022-10-19T05:51:00.511Z,893.0
2022-10-19T05:52:00.402Z,893.0
2022-10-19T05:53:00.290Z,893.0
2022-10-19T05:54:00.351Z,893.0
2022-10-19T05:55:00.418Z,893.0
2022-10-19T05:56:00.319Z,893.0
2022-10-19T05:57:00.324Z,893.0
2022-10-19T05:58:00.277Z,893.0
2022-10-19T05:59:00.374Z,892.9
2022-10-19T06:00:00.329Z,892.9
2022-10-19T06:01:00.512Z,892.9
2022-10-19T06:02:00.346Z,892.9
2022-10-19T06:03:00.382Z,892.9
2022-10-19T06:04:00.396Z,892.9
2022-10-19T06:05:00.301Z,892.9
2022-10-19T06:06:00.296Z,892.9
2022-10-19T06:07:00.694Z,892.9
2022-10-19T06:08:00.296Z,892.9
2022-10-19T06:09:00.304Z,893.0
2022-10-19T06:10:00.291Z,892.9
2022-10-19T06:11:00.287Z,892.9
2022-10-19T06:12:00.297Z,893.0
2022-10-19T06:13:00.420Z,892.9
2022-10-19T06:14:00.277Z,893.0
2022-10-19T06:15:00.307Z,892.9
2022-10-19T06:16:00.271Z,892.9
2022-10-19T06:17:00.311Z,892.8
2022-10-19T06:18:00.366Z,892.9
2022-10-19T06:19:00.523Z,892.8
2022-10-19T06:20:00.283Z,892.8
2022-10-19T06:21:00.393Z,892.8
2022-10-19T06:22:00.511Z,892.8
2022-10-19T06:23:00.333Z,892.8
2022-10-19T06:24:00.361Z,892.9
2022-10-19T06:25:00.531Z,892.8
2022-10-19T06:26:00.348Z,892.8
2022-10-19T06:27:00.328Z,892.8
2022-10-19T06:28:00.385Z,892.8
2022-10-19T06:29:00.372Z,892.8
2022-10-19T06:30:00.338Z,892.8
2022-10-19T06:31:00.669Z,892.8
2022-10-19T06:32:00.309Z,892.8
2022-10-19T06:33:00.442Z,892.8
2022-10-19T06:34:00.416Z,892.7
2022-10-19T06:35:00.329Z,892.8
2022-10-19T06:36:00.372Z,892.7
2022-10-19T06:37:00.508Z,892.7
2022-10-19T06:38:00.339Z,892.7
2022-10-19T06:39:00.280Z,892.7
2022-10-19T06:40:04.718Z,892.6
2022-10-19T06:41:00.294Z,892.6
2022-10-19T06:42:00.361Z,892.6
2022-10-19T06:43:00.576Z,892.6
2022-10-19T06:44:00.301Z,892.7
2022-10-19T06:45:00.366Z,892.6
2022-10-19T06:46:00.306Z,892.6
2022-10-19T06:47:00.313Z,892.7
2022-10-19T06:48:03.519Z,892.6
2022-10-19T06:49:00.458Z,892.7
2022-10-19T06:50:00.400Z,892.7
2022-10-19T06:51:00.313Z,892.7
2022-10-19T06:52:00.515Z,892.6
2022-10-19T06:53:00.273Z,892.6
2022-10-19T06:54:00.293Z,892.6
2022-10-19T06:55:00.500Z,892.6
2022-10-19T06:56:00.309Z,892.5
2022-10-19T06:57:00.298Z,892.5
2022-10-19T06:58:00.294Z,892.5
2022-10-19T06:59:00.291Z,892.4
2022-10-19T07:00:00.297Z,892.4
2022-10-19T07:01:00.464Z,892.4
2022-10-19T07:02:00.289Z,892.4
2022-10-19T07:03:00.285Z,892.4
2022-10-19T07:04:00.300Z,892.4
2022-10-19T07:05:04.630Z,892.3
2022-10-19T07:06:00.287Z,892.3
2022-10-19T07:07:00.536Z,892.3
2022-10-19T07:09:00.274Z,892.2
2022-10-19T07:10:00.288Z,892.2
2022-10-19T07:11:00.296Z,892.2
2022-10-19T07:12:00.290Z,892.2
2022-10-19T07:13:00.583Z,892.2
2022-10-19T07:14:00.275Z,892.1
2022-10-19T07:15:00.312Z,892.1
2022-10-19T07:16:00.281Z,892.1
2022-10-19T07:17:00.292Z,892.1
2022-10-19T07:18:00.306Z,892.2
2022-10-19T07:19:00.526Z,892.1
2022-10-19T07:20:00.308Z,892.1
2022-10-19T07:21:00.293Z,892.1
2022-10-19T07:22:00.543Z,892.1
2022-10-19T07:23:00.281Z,892.1
2022-10-19T07:24:00.361Z,892.1
2022-10-19T07:25:00.447Z,892.0
2022-10-19T07:26:00.376Z,892.0
2022-10-19T07:27:00.284Z,892.0
2022-10-19T07:28:00.356Z,892.0
2022-10-19T07:29:00.305Z,891.9
2022-10-19T07:30:00.365Z,891.9
2022-10-19T07:31:00.474Z,891.9
2022-10-19T07:32:00.311Z,891.9
2022-10-19T07:33:00.348Z,891.9
2022-10-19T07:34:00.367Z,891.9
2022-10-19T07:35:00.339Z,891.9
2022-10-19T07:36:00.281Z,891.8
2022-10-19T07:37:00.724Z,891.8
2022-10-19T07:38:00.299Z,891.8
2022-10-19T07:39:00.291Z,891.9
2022-10-19T07:40:00.292Z,891.8
2022-10-19T07:41:00.309Z,891.8
2022-10-19T07:42:00.318Z,891.8
2022-10-19T07:43:00.431Z,891.8
2022-10-19T07:44:00.283Z,891.8
2022-10-19T07:45:00.278Z,891.8
2022-10-19T07:46:00.288Z,891.7
2022-10-19T07:47:00.296Z,891.7
2022-10-19T07:48:00.275Z,891.7
2022-10-19T07:49:00.528Z,891.7
2022-10-19T07:50:00.297Z,891.7
2022-10-19T07:51:00.315Z,891.7
2022-10-19T07:52:00.470Z,891.7
2022-10-19T07:53:00.297Z,891.7
2022-10-19T07:54:00.312Z,891.7
2022-10-19T07:55:00.449Z,891.7
2022-10-19T07:56:00.289Z,891.7
2022-10-19T07:57:00.355Z,891.6
2022-10-19T07:58:00.305Z,891.6
2022-10-19T07:59:00.336Z,891.6
2022-10-19T08:00:00.335Z,891.6
2022-10-19T08:01:00.472Z,891.6
2022-10-19T08:02:00.402Z,891.6
2022-10-19T08:03:31.650Z,891.6
2022-10-19T08:05:03.959Z,891.6
2022-10-19T08:06:00.321Z,891.7
2022-10-19T08:07:00.525Z,891.6
2022-10-19T08:08:00.451Z,891.6
2022-10-19T08:09:00.499Z,891.6
2022-10-19T08:10:00.289Z,891.6
2022-10-19T08:11:00.372Z,891.6
2022-10-19T08:12:00.276Z,891.6
2022-10-19T08:13:00.464Z,891.6
2022-10-19T08:14:00.311Z,891.6
2022-10-19T08:15:00.287Z,891.6
2022-10-19T08:16:00.292Z,891.6
2022-10-19T08:17:00.295Z,891.5
2022-10-19T08:18:00.290Z,891.5
2022-10-19T08:19:00.693Z,891.5
2022-10-19T08:20:00.297Z,891.4
2022-10-19T08:21:00.313Z,891.4
2022-10-19T08:22:00.314Z,891.4
2022-10-19T08:23:00.493Z,891.5
2022-10-19T08:24:00.298Z,891.4
2022-10-19T08:25:00.448Z,891.5
2022-10-19T08:26:00.292Z,891.5
2022-10-19T08:27:00.335Z,891.5
2022-10-19T08:28:00.300Z,891.5
2022-10-19T08:29:00.308Z,891.4
2022-10-19T08:30:00.300Z,891.5
2022-10-19T08:31:00.430Z,891.4
2022-10-19T08:32:00.323Z,891.4
2022-10-19T08:33:00.339Z,891.3
2022-10-19T08:34:00.295Z,891.3
2022-10-19T08:35:00.312Z,891.3
2022-10-19T08:36:00.296Z,891.2
2022-10-19T08:37:04.098Z,891.2
2022-10-19T08:38:02.795Z,891.2
2022-10-19T08:39:00.288Z,891.1
2022-10-19T08:40:00.339Z,891.2
2022-10-19T08:41:00.275Z,891.1
2022-10-19T08:42:00.359Z,891.1
2022-10-19T08:43:00.531Z,891.0
2022-10-19T08:44:00.303Z,891.0
2022-10-19T08:45:00.334Z,891.0
2022-10-19T08:46:00.273Z,891.1
2022-10-19T08:47:02.439Z,891.1
2022-10-19T08:48:00.338Z,891.1
2022-10-19T08:49:00.452Z,891.1
2022-10-19T08:50:00.319Z,891.1
2022-10-19T08:51:00.351Z,891.1
2022-10-19T08:52:00.367Z,891.0
2022-10-19T08:53:00.482Z,891.0
2022-10-19T08:54:00.346Z,890.9
2022-10-19T08:55:00.519Z,890.9
2022-10-19T08:56:03.765Z,890.8
2022-10-19T08:57:00.320Z,890.8
2022-10-19T08:58:00.344Z,890.9
2022-10-19T08:59:00.308Z,890.8
2022-10-19T09:00:00.315Z,890.8
2022-10-19T09:01:00.597Z,890.7
2022-10-19T09:02:00.313Z,890.6
2022-10-19T09:03:00.331Z,890.7
2022-10-19T09:04:00.312Z,890.7
2022-10-19T09:05:00.299Z,890.6
2022-10-19T09:06:00.300Z,890.7
2022-10-19T09:07:00.442Z,890.7
2022-10-19T09:08:00.432Z,890.6
2022-10-19T09:09:00.393Z,890.7
2022-10-19T09:10:00.306Z,890.6
2022-10-19T09:11:00.363Z,890.6
2022-10-19T09:12:00.332Z,890.6
2022-10-19T09:13:00.427Z,890.5
2022-10-19T09:14:05.077Z,890.5
2022-10-19T09:15:00.284Z,890.5
2022-10-19T09:16:00.313Z,890.5
2022-10-19T09:17:00.311Z,890.4
2022-10-19T09:18:00.313Z,890.4
2022-10-19T09:19:00.447Z,890.4
2022-10-19T09:20:00.305Z,890.4
2022-10-19T09:21:00.299Z,890.3
2022-10-19T09:22:00.293Z,890.3
2022-10-19T09:23:00.540Z,890.3
2022-10-19T09:24:00.453Z,890.3
2022-10-19T09:25:00.499Z,890.2
2022-10-19T09:26:00.353Z,890.2
2022-10-19T09:27:00.400Z,890.2
2022-10-19T09:29:00.389Z,890.1
2022-10-19T09:30:00.289Z,890.1
2022-10-19T09:31:00.477Z,890.1
2022-10-19T09:32:00.400Z,890.0
2022-10-19T09:33:00.381Z,890.0
2022-10-19T09:34:00.379Z,890.0
2022-10-19T09:35:00.311Z,889.9
2022-10-19T09:36:00.406Z,889.9
2022-10-19T09:37:00.554Z,889.9
2022-10-19T09:38:00.434Z,889.9
2022-10-19T09:39:00.378Z,889.8
2022-10-19T09:40:00.291Z,889.8
2022-10-19T09:41:00.308Z,889.8
2022-10-19T09:42:00.290Z,889.7
2022-10-19T09:43:00.469Z,889.7
2022-10-19T09:44:00.275Z,889.7
2022-10-19T09:45:00.302Z,889.6
2022-10-19T09:46:00.306Z,889.6
2022-10-19T09:47:00.341Z,889.5
2022-10-19T09:48:08.658Z,889.5
2022-10-19T09:49:00.443Z,889.5
2022-10-19T09:50:00.316Z,889.5
2022-10-19T09:51:00.290Z,889.4
2022-10-19T09:52:00.286Z,889.4
2022-10-19T09:53:00.441Z,889.3
2022-10-19T09:54:00.282Z,889.3
2022-10-19T09:55:00.532Z,889.3
2022-10-19T09:56:00.288Z,889.3
2022-10-19T09:57:00.302Z,889.3
2022-10-19T09:58:00.305Z,889.2
2022-10-19T09:59:00.283Z,889.2
2022-10-19T10:00:00.308Z,889.2
2022-10-19T10:01:00.496Z,889.1
2022-10-19T10:02:00.366Z,889.1
2022-10-19T10:03:00.293Z,889.1
2022-10-19T10:04:00.290Z,889.1
2022-10-19T10:05:00.278Z,889.1
2022-10-19T10:06:00.303Z,889.0
2022-10-19T10:07:00.447Z,889.0
2022-10-19T10:08:00.417Z,888.9
2022-10-19T10:09:00.374Z,888.9
2022-10-19T10:10:00.356Z,888.9
2022-10-19T10:11:00.334Z,888.9
2022-10-19T10:12:00.495Z,888.8
2022-10-19T10:13:00.466Z,888.8
2022-10-19T10:14:00.319Z,888.8
2022-10-19T10:15:00.363Z,888.8
2022-10-19T10:16:00.328Z,888.8
2022-10-19T10:17:00.342Z,888.8
2022-10-19T10:18:00.276Z,888.7
2022-10-19T10:19:00.493Z,888.7
2022-10-19T10:20:00.312Z,888.7
2022-10-19T10:21:00.394Z,888.7
2022-10-19T10:22:00.419Z,888.7
2022-10-19T10:23:00.464Z,888.6
2022-10-19T10:24:00.308Z,888.6
2022-10-19T10:25:00.569Z,888.6
2022-10-19T10:26:00.295Z,888.6
2022-10-19T10:27:00.318Z,888.6
2022-10-19T10:28:00.318Z,888.6
2022-10-19T10:29:01.581Z,888.6
2022-10-19T10:30:00.464Z,888.6
2022-10-19T10:31:00.437Z,888.5
2022-10-19T10:32:00.293Z,888.5
2022-10-19T10:33:09.250Z,888.5
2022-10-19T10:34:06.585Z,888.5
2022-10-19T10:35:01.492Z,888.5
2022-10-19T10:36:00.345Z,888.5
2022-10-19T10:37:00.523Z,888.5
2022-10-19T10:38:00.495Z,888.5
2022-10-19T10:39:00.309Z,888.5
2022-10-19T10:40:03.618Z,888.5
2022-10-19T10:41:00.314Z,888.5
2022-10-19T10:42:00.291Z,888.5
2022-10-19T10:43:00.444Z,888.5
2022-10-19T10:44:03.694Z,888.4
2022-10-19T10:45:00.293Z,888.4
2022-10-19T10:46:00.291Z,888.4
2022-10-19T10:47:00.283Z,888.4
2022-10-19T10:48:00.358Z,888.3
2022-10-19T10:49:00.506Z,888.3
2022-10-19T10:50:00.294Z,888.3
2022-10-19T10:51:00.294Z,888.2
2022-10-19T10:52:00.337Z,888.2
2022-10-19T10:53:00.485Z,888.2
2022-10-19T10:54:00.306Z,888.2
2022-10-19T10:55:00.550Z,888.2
2022-10-19T10:56:00.368Z,888.1
2022-10-19T10:57:04.305Z,888.2
2022-10-19T10:58:00.314Z,888.1
2022-10-19T10:59:00.302Z,888.1
2022-10-19T11:00:00.374Z,888.1
2022-10-19T11:01:05.253Z,888.1
2022-10-19T11:02:00.399Z,888.1
2022-10-19T11:03:00.302Z,888.1
2022-10-19T11:04:00.362Z,888.1
2022-10-19T11:05:00.587Z,888.1
2022-10-19T11:06:00.304Z,888.2
2022-10-19T11:07:00.474Z,888.1
2022-10-19T11:08:00.518Z,888.2
2022-10-19T11:09:00.379Z,888.2
2022-10-19T11:10:00.296Z,888.2
2022-10-19T11:11:00.296Z,888.2
2022-10-19T11:12:00.295Z,888.2
2022-10-19T11:13:00.441Z,888.2
2022-10-19T11:14:00.301Z,888.2
2022-10-19T11:15:00.337Z,888.2
2022-10-19T11:16:00.304Z,888.1
2022-10-19T11:17:00.312Z,888.2
2022-10-19T11:18:00.296Z,888.1
2022-10-19T11:19:00.422Z,888.1
2022-10-19T11:20:00.313Z,888.1
2022-10-19T11:21:00.304Z,888.0
2022-10-19T11:22:00.307Z,888.1
2022-10-19T11:23:00.439Z,888.0
2022-10-19T11:24:00.309Z,888.0
2022-10-19T11:25:00.682Z,887.9
2022-10-19T11:26:00.314Z,887.9
2022-10-19T11:27:00.313Z,887.9
2022-10-19T11:28:00.306Z,887.8
2022-10-19T11:29:00.329Z,887.8
2022-10-19T11:30:00.304Z,887.8
2022-10-19T11:31:00.469Z,887.9
2022-10-19T11:32:00.348Z,887.9
2022-10-19T11:33:00.344Z,887.9
2022-10-19T11:34:00.493Z,887.9
2022-10-19T11:35:00.380Z,887.8
2022-10-19T11:36:00.324Z,887.8
2022-10-19T11:37:00.636Z,887.8
2022-10-19T11:38:18.798Z,887.9
2022-10-19T11:39:00.359Z,888.0
2022-10-19T11:40:00.341Z,887.9
2022-10-19T11:41:16.875Z,887.8
2022-10-19T11:42:00.372Z,887.8
2022-10-19T11:43:00.517Z,887.9
2022-10-19T11:44:00.304Z,888.0
2022-10-19T11:45:00.315Z,888.1
2022-10-19T11:46:00.320Z,888.1
2022-10-19T11:47:00.313Z,888.1
2022-10-19T11:48:00.308Z,888.1
2022-10-19T11:49:00.377Z,888.0
2022-10-19T11:50:00.349Z,888.0
2022-10-19T11:51:16.785Z,888.1
2022-10-19T11:52:00.279Z,888.2
2022-10-19T11:53:00.428Z,888.2
2022-10-19T11:54:00.311Z,888.1
2022-10-19T11:55:00.376Z,888.1
2022-10-19T11:56:00.293Z,888.1
2022-10-19T11:57:06.392Z,888.0
2022-10-19T11:58:00.315Z,887.9
2022-10-19T11:59:00.345Z,887.8
2022-10-19T12:00:08.573Z,887.8
2022-10-19T12:01:00.555Z,887.9
2022-10-19T12:02:00.354Z,887.9
2022-10-19T12:03:03.490Z,887.9
2022-10-19T12:04:00.303Z,888.0
2022-10-19T12:05:00.324Z,888.0
2022-10-19T12:06:00.291Z,888.1
2022-10-19T12:07:00.531Z,888.1
2022-10-19T12:08:00.409Z,888.0
2022-10-19T12:09:00.360Z,888.0
2022-10-19T12:10:00.295Z,888.0
2022-10-19T12:11:00.316Z,888.0
2022-10-19T12:12:00.289Z,888.0
2022-10-19T12:13:00.393Z,887.9
2022-10-19T12:14:00.282Z,887.9
2022-10-19T12:15:00.312Z,887.9
2022-10-19T12:16:00.286Z,887.8
2022-10-19T12:17:00.386Z,887.8
2022-10-19T12:18:00.322Z,887.8
2022-10-19T12:19:00.484Z,887.7
2022-10-19T12:20:00.370Z,887.7
2022-10-19T12:21:00.292Z,887.7
2022-10-19T12:22:00.349Z,887.7
2022-10-19T12:23:00.409Z,887.7
2022-10-19T12:24:00.341Z,887.6
2022-10-19T12:25:00.505Z,887.6
2022-10-19T12:26:00.281Z,887.5
2022-10-19T12:27:00.376Z,887.5
2022-10-19T12:28:00.401Z,887.5
2022-10-19T12:29:00.303Z,887.5
2022-10-19T12:30:00.298Z,887.5
2022-10-19T12:31:00.584Z,887.5
2022-10-19T12:32:00.291Z,887.5
2022-10-19T12:33:00.290Z,887.5
2022-10-19T12:34:00.317Z,887.5
2022-10-19T12:35:00.373Z,887.5
2022-10-19T12:36:00.301Z,887.4
2022-10-19T12:37:00.514Z,887.4
2022-10-19T12:38:00.516Z,887.4
2022-10-19T12:39:00.680Z,887.5
2022-10-19T12:40:00.328Z,887.4
2022-10-19T12:41:00.354Z,887.4
2022-10-19T12:42:00.388Z,887.4
2022-10-19T12:43:00.802Z,887.4
2022-10-19T12:44:00.322Z,887.4
2022-10-19T12:45:00.316Z,887.4
2022-10-19T12:46:00.401Z,887.4
2022-10-19T12:47:01.063Z,887.4
2022-10-19T12:48:00.310Z,887.4
2022-10-19T12:49:00.469Z,887.3
2022-10-19T12:50:00.358Z,887.3
2022-10-19T12:51:00.295Z,887.3
2022-10-19T12:52:00.317Z,887.3
2022-10-19T12:53:00.383Z,887.3
2022-10-19T12:54:00.359Z,887.2
2022-10-19T12:55:00.521Z,887.2
2022-10-19T12:56:00.436Z,887.1